createdAt,value
2023-04-16T00:01:51.579Z,9.00
2023-04-16T00:04:18.893Z,9.10
2023-04-16T00:06:45.952Z,9.20
2023-04-16T00:09:12.872Z,9.30
2023-04-16T00:11:39.699Z,9.10
2023-04-16T00:14:06.590Z,9.10
2023-04-16T00:16:33.551Z,9.20
2023-04-16T00:19:00.383Z,9.30
2023-04-16T00:21:27.659Z,9.20
2023-04-16T00:23:54.638Z,9.20
2023-04-16T00:26:21.465Z,9.00
2023-04-16T00:28:48.291Z,8.90
2023-04-16T00:31:15.102Z,9.10
2023-04-16T00:33:42.051Z,9.10
2023-04-16T00:36:09.835Z,9.10
2023-04-16T00:38:37.464Z,9.20
2023-04-16T00:41:04.396Z,9.10
2023-04-16T00:43:31.782Z,9.00
2023-04-16T00:45:59.559Z,9.10
2023-04-16T00:48:28.334Z,9.20
2023-04-16T00:50:55.987Z,9.00
2023-04-16T00:53:23.526Z,9.10
2023-04-16T00:55:51.120Z,8.90
2023-04-16T00:58:18.379Z,9.00
2023-04-16T01:00:45.401Z,9.00
2023-04-16T01:03:12.470Z,9.00
2023-04-16T01:05:39.643Z,9.00
2023-04-16T01:08:06.848Z,9.00
2023-04-16T01:10:33.610Z,9.00
2023-04-16T01:13:00.530Z,9.10
2023-04-16T01:15:27.407Z,9.10
2023-04-16T01:17:54.205Z,9.10
2023-04-16T01:20:21.079Z,9.20
2023-04-16T01:22:47.866Z,9.20
2023-04-16T01:25:16.099Z,9.10
2023-04-16T01:27:42.940Z,9.10
2023-04-16T01:30:10.016Z,9.10
2023-04-16T01:32:36.978Z,9.10
2023-04-16T01:35:04.069Z,9.10
2023-04-16T01:37:31.482Z,9.20
2023-04-16T01:39:58.305Z,9.30
2023-04-16T01:42:25.150Z,9.10
2023-04-16T01:44:51.931Z,9.10
2023-04-16T01:47:18.802Z,9.10
2023-04-16T01:49:48.219Z,9.10
2023-04-16T01:52:15.079Z,9.10
2023-04-16T01:54:42.006Z,9.10
2023-04-16T01:57:09.230Z,9.00
2023-04-16T01:59:36.108Z,9.10
2023-04-16T02:02:11.578Z,9.10
2023-04-16T02:04:39.650Z,9.10
2023-04-16T02:07:06.869Z,9.20
2023-04-16T02:09:37.728Z,9.20
2023-04-16T02:12:04.803Z,9.20
2023-04-16T02:14:32.566Z,9.10
2023-04-16T02:17:00.382Z,9.10
2023-04-16T02:19:27.690Z,9.10
2023-04-16T02:21:55.111Z,9.00
2023-04-16T02:24:22.165Z,9.10
2023-04-16T02:26:49.083Z,9.10
2023-04-16T02:29:16.648Z,9.10
2023-04-16T02:31:44.508Z,9.00
2023-04-16T02:34:11.460Z,9.00
2023-04-16T02:36:38.768Z,9.00
2023-04-16T02:39:05.765Z,8.90
2023-04-16T02:41:32.994Z,8.90
2023-04-16T02:44:00.014Z,8.90
2023-04-16T02:46:26.932Z,8.90
2023-04-16T02:48:53.997Z,9.00
2023-04-16T02:51:21.398Z,9.00
2023-04-16T02:53:48.312Z,9.10
2023-04-16T02:56:15.097Z,9.10
2023-04-16T02:58:42.073Z,9.10
2023-04-16T03:01:09.004Z,9.10
2023-04-16T03:03:36.221Z,9.20
2023-04-16T03:06:03.190Z,9.10
2023-04-16T03:08:30.007Z,9.20
2023-04-16T03:10:56.862Z,9.10
2023-04-16T03:13:23.720Z,9.20
2023-04-16T03:15:50.948Z,9.20
2023-04-16T03:18:17.914Z,9.30
2023-04-16T03:20:44.675Z,9.20
2023-04-16T03:23:11.460Z,9.20
2023-04-16T03:25:40.594Z,9.20
2023-04-16T03:28:07.508Z,9.20
2023-04-16T03:30:34.421Z,9.20
2023-04-16T03:33:01.353Z,9.30
2023-04-16T03:35:28.163Z,9.20
2023-04-16T03:37:55.034Z,9.30
2023-04-16T03:40:21.960Z,9.20
2023-04-16T03:42:48.826Z,9.30
2023-04-16T03:45:15.876Z,9.20
2023-04-16T03:47:42.786Z,9.20
2023-04-16T03:50:11.636Z,9.10
2023-04-16T03:52:38.573Z,9.20
2023-04-16T03:55:06.086Z,9.20
2023-04-16T03:57:33.003Z,9.10
2023-04-16T03:59:59.945Z,9.20
2023-04-16T04:02:27.385Z,9.20
2023-04-16T04:04:54.521Z,9.10
2023-04-16T04:07:21.294Z,9.00
2023-04-16T04:09:48.249Z,9.20
2023-04-16T04:12:15.343Z,9.30
2023-04-16T04:14:42.159Z,9.20
2023-04-16T04:17:09.414Z,9.20
2023-04-16T04:19:37.748Z,9.20
2023-04-16T04:22:05.715Z,9.20
2023-04-16T04:24:32.790Z,9.10
2023-04-16T04:26:59.608Z,9.20
2023-04-16T04:29:26.479Z,9.10
2023-04-16T04:31:53.623Z,9.00
2023-04-16T04:34:20.696Z,8.90
2023-04-16T04:36:47.504Z,8.90
2023-04-16T04:39:14.283Z,9.00
2023-04-16T04:41:41.098Z,8.90
2023-04-16T04:44:07.942Z,8.90
2023-04-16T04:46:34.808Z,8.90
2023-04-16T04:49:01.585Z,9.00
2023-04-16T04:51:28.432Z,9.10
2023-04-16T04:53:55.295Z,9.10
2023-04-16T04:56:22.190Z,9.10
2023-04-16T04:58:51.129Z,9.10
2023-04-16T05:01:18.230Z,9.10
2023-04-16T05:03:45.291Z,9.10
2023-04-16T05:06:12.248Z,9.10
2023-04-16T05:08:39.307Z,9.10
2023-04-16T05:11:06.391Z,9.10
2023-04-16T05:13:33.264Z,9.10
2023-04-16T05:16:00.563Z,9.00
2023-04-16T05:18:27.823Z,9.20
2023-04-16T05:20:54.654Z,9.10
2023-04-16T05:23:21.445Z,9.10
2023-04-16T05:25:48.346Z,9.10
2023-04-16T05:28:15.168Z,9.10
2023-04-16T05:30:42.013Z,9.10
2023-04-16T05:33:08.888Z,9.00
2023-04-16T05:35:35.718Z,9.00
2023-04-16T05:38:04.399Z,9.10
2023-04-16T05:40:31.994Z,9.10
2023-04-16T05:42:58.939Z,9.10
2023-04-16T05:45:27.964Z,9.20
2023-04-16T05:47:55.175Z,9.10
2023-04-16T05:50:22.108Z,9.10
2023-04-16T05:52:49.030Z,9.10
2023-04-16T05:55:15.977Z,9.20
2023-04-16T05:57:42.777Z,9.20
2023-04-16T06:00:09.909Z,9.20
2023-04-16T06:02:36.952Z,9.20
2023-04-16T06:05:04.179Z,9.20
2023-04-16T06:07:31.113Z,9.10
2023-04-16T06:09:57.992Z,9.20
2023-04-16T06:12:24.903Z,9.20
2023-04-16T06:14:51.885Z,9.10
2023-04-16T06:17:19.516Z,9.20
2023-04-16T06:19:46.384Z,9.20
2023-04-16T06:22:13.301Z,9.10
2023-04-16T06:24:40.249Z,9.20
2023-04-16T06:27:07.309Z,9.10
2023-04-16T06:29:41.187Z,9.10
2023-04-16T06:32:09.170Z,9.10
2023-04-16T06:34:36.237Z,9.10
2023-04-16T06:37:03.058Z,9.10
2023-04-16T06:39:30.241Z,9.10
2023-04-16T06:41:57.506Z,9.10
2023-04-16T06:44:24.387Z,9.10
2023-04-16T06:46:51.624Z,9.10
2023-04-16T06:49:18.449Z,9.00
2023-04-16T06:51:45.538Z,9.00
2023-04-16T06:54:12.290Z,9.00
2023-04-16T06:56:39.122Z,9.10
2023-04-16T06:59:06.233Z,9.20
2023-04-16T07:01:33.171Z,9.20
2023-04-16T07:04:00.375Z,9.20
2023-04-16T07:06:27.913Z,9.20
2023-04-16T07:08:54.681Z,9.20
2023-04-16T07:11:22.433Z,9.30
2023-04-16T07:13:51.148Z,9.20
2023-04-16T07:16:18.292Z,9.30
2023-04-16T07:18:45.167Z,9.20
2023-04-16T07:21:12.016Z,9.30
2023-04-16T07:23:38.970Z,9.20
2023-04-16T07:26:05.974Z,9.20
2023-04-16T07:28:32.865Z,9.20
2023-04-16T07:31:00.366Z,9.30
2023-04-16T07:33:27.576Z,9.30
2023-04-16T07:35:54.440Z,9.40
2023-04-16T07:38:21.459Z,9.30
2023-04-16T07:40:48.426Z,9.20
2023-04-16T07:43:16.536Z,9.30
2023-04-16T07:45:43.366Z,9.30
2023-04-16T07:48:10.216Z,9.20
2023-04-16T07:50:37.344Z,9.40
2023-04-16T07:53:05.930Z,9.40
2023-04-16T07:55:32.821Z,9.40
2023-04-16T07:57:59.665Z,9.50
2023-04-16T08:00:26.615Z,9.50
2023-04-16T08:02:53.802Z,9.50
2023-04-16T08:05:21.034Z,9.50
2023-04-16T08:07:47.887Z,9.40
2023-04-16T08:10:14.858Z,9.50
2023-04-16T08:12:41.680Z,9.60
2023-04-16T08:15:08.963Z,9.60
2023-04-16T08:17:37.694Z,9.50
2023-04-16T08:20:05.892Z,9.40
2023-04-16T08:22:33.818Z,9.50
2023-04-16T08:25:00.655Z,9.50
2023-04-16T08:27:27.471Z,9.50
2023-04-16T08:29:54.297Z,9.60
2023-04-16T08:32:21.196Z,9.60
2023-04-16T08:34:48.048Z,9.70
2023-04-16T08:37:14.806Z,9.60
2023-04-16T08:39:41.796Z,9.50
2023-04-16T08:42:25.134Z,9.60
2023-04-16T08:45:00.185Z,9.70
2023-04-16T08:47:29.104Z,9.70
2023-04-16T08:49:58.505Z,9.70
2023-04-16T08:52:30.769Z,9.70
2023-04-16T08:55:08.204Z,9.70
2023-04-16T08:57:41.617Z,9.70
2023-04-16T09:00:09.878Z,9.80
2023-04-16T09:02:37.405Z,9.70
2023-04-16T09:05:07.218Z,9.70
2023-04-16T09:07:35.569Z,9.70
2023-04-16T09:10:03.494Z,9.80
2023-04-16T09:12:31.423Z,9.90
2023-04-16T09:15:01.208Z,10.00
2023-04-16T09:17:28.527Z,10.00
2023-04-16T09:19:55.613Z,9.90
2023-04-16T09:22:22.397Z,9.90
2023-04-16T09:24:49.256Z,9.90
2023-04-16T09:27:17.099Z,9.90
2023-04-16T09:29:44.074Z,9.90
2023-04-16T09:32:12.224Z,10.00
2023-04-16T09:34:58.873Z,10.00
2023-04-16T09:37:27.417Z,10.00
2023-04-16T09:39:59.989Z,10.00
2023-04-16T09:42:29.049Z,10.10
2023-04-16T09:44:59.412Z,10.00
2023-04-16T09:47:42.627Z,10.10
2023-04-16T09:50:16.473Z,10.20
2023-04-16T09:52:48.126Z,10.10
2023-04-16T09:55:15.447Z,10.20
2023-04-16T09:57:44.919Z,10.30
2023-04-16T10:00:12.370Z,10.20
2023-04-16T10:02:42.709Z,10.20
2023-04-16T10:05:10.024Z,10.20
2023-04-16T10:07:37.862Z,10.20
2023-04-16T10:10:05.525Z,10.20
2023-04-16T10:12:35.693Z,10.20
2023-04-16T10:15:02.639Z,10.20
2023-04-16T10:17:30.572Z,10.20
2023-04-16T10:19:58.605Z,10.20
2023-04-16T10:22:26.551Z,10.30
2023-04-16T10:24:54.797Z,10.40
2023-04-16T10:27:21.955Z,10.40
2023-04-16T10:29:49.823Z,10.40
2023-04-16T10:32:19.049Z,10.50
2023-04-16T10:34:46.197Z,10.50
2023-04-16T10:37:13.010Z,10.50
2023-04-16T10:39:39.850Z,10.60
2023-04-16T10:42:09.167Z,10.50
2023-04-16T10:44:36.597Z,10.30
2023-04-16T10:47:10.225Z,10.40
2023-04-16T10:49:37.106Z,10.40
2023-04-16T10:52:17.055Z,10.50
2023-04-16T10:54:43.959Z,10.50
2023-04-16T10:57:16.401Z,10.50
2023-04-16T10:59:44.342Z,10.50
2023-04-16T11:02:18.815Z,10.50
2023-04-16T11:04:48.223Z,10.60
2023-04-16T11:07:17.197Z,10.60
2023-04-16T11:09:48.047Z,10.70
2023-04-16T11:12:18.522Z,10.70
2023-04-16T11:14:50.828Z,10.80
2023-04-16T11:17:18.660Z,10.90
2023-04-16T11:19:45.588Z,10.80
2023-04-16T11:22:15.098Z,10.80
2023-04-16T11:24:42.270Z,10.70
2023-04-16T11:27:09.100Z,10.70
2023-04-16T11:29:36.106Z,10.70
2023-04-16T11:32:03.185Z,10.80
2023-04-16T11:34:30.014Z,10.80
2023-04-16T11:36:56.973Z,10.70
2023-04-16T11:39:23.930Z,10.80
2023-04-16T11:41:52.582Z,10.80
2023-04-16T11:44:23.566Z,10.80
2023-04-16T11:46:51.966Z,10.60
2023-04-16T11:49:30.520Z,10.70
2023-04-16T11:51:58.025Z,10.80
2023-04-16T11:54:25.669Z,10.70
2023-04-16T11:56:53.722Z,10.80
2023-04-16T11:59:23.162Z,10.80
2023-04-16T12:01:50.952Z,10.90
2023-04-16T12:04:20.654Z,10.90
2023-04-16T12:07:06.704Z,10.80
2023-04-16T12:09:37.139Z,10.70
2023-04-16T12:12:06.849Z,10.70
2023-04-16T12:14:33.825Z,10.60
2023-04-16T12:17:20.126Z,10.70
2023-04-16T12:19:56.673Z,10.80
2023-04-16T12:22:31.990Z,10.80
2023-04-16T12:25:00.891Z,10.90
2023-04-16T12:27:53.321Z,11.00
2023-04-16T12:30:22.971Z,11.10
2023-04-16T12:33:13.925Z,11.00
2023-04-16T12:35:41.981Z,11.00
2023-04-16T12:38:09.201Z,10.90
2023-04-16T12:40:38.261Z,11.00
2023-04-16T12:43:05.428Z,11.10
2023-04-16T12:45:32.257Z,11.00
2023-04-16T12:47:59.577Z,11.10
2023-04-16T12:50:26.600Z,11.10
2023-04-16T12:52:53.501Z,11.10
2023-04-16T12:55:20.475Z,11.10
2023-04-16T12:57:48.939Z,11.10
2023-04-16T13:00:16.397Z,11.10
2023-04-16T13:02:43.320Z,11.00
2023-04-16T13:05:10.309Z,11.10
2023-04-16T13:07:37.270Z,11.00
2023-04-16T13:10:04.380Z,11.10
2023-04-16T13:12:32.758Z,11.00
2023-04-16T13:14:59.613Z,11.00
2023-04-16T13:17:26.567Z,11.00
2023-04-16T13:19:53.350Z,11.10
2023-04-16T13:22:20.774Z,11.20
2023-04-16T13:24:47.594Z,11.20
2023-04-16T13:27:16.199Z,11.20
2023-04-16T13:29:43.225Z,11.20
2023-04-16T13:32:10.194Z,11.20
2023-04-16T13:34:37.207Z,11.20
2023-04-16T13:37:04.097Z,11.10
2023-04-16T13:39:31.088Z,11.30
2023-04-16T13:41:58.016Z,11.40
2023-04-16T13:44:24.988Z,11.20
2023-04-16T13:46:52.498Z,11.30
2023-04-16T13:49:19.704Z,11.30
2023-04-16T13:51:46.621Z,11.30
2023-04-16T13:54:13.554Z,11.30
2023-04-16T13:56:40.946Z,11.40
2023-04-16T13:59:08.603Z,11.40
2023-04-16T14:01:35.830Z,11.30
2023-04-16T14:04:06.856Z,11.30
2023-04-16T14:06:34.770Z,11.20
2023-04-16T14:09:01.917Z,11.30
2023-04-16T14:11:29.052Z,11.30
2023-04-16T14:13:56.244Z,11.40
2023-04-16T14:16:23.460Z,11.30
2023-04-16T14:18:51.878Z,11.40
2023-04-16T14:21:19.107Z,11.50
2023-04-16T14:23:46.003Z,11.60
2023-04-16T14:26:13.041Z,11.70
2023-04-16T14:28:40.944Z,11.70
2023-04-16T14:31:07.930Z,11.70
2023-04-16T14:33:34.913Z,11.60
2023-04-16T14:36:03.221Z,11.50
2023-04-16T14:38:31.260Z,11.60
2023-04-16T14:40:58.219Z,11.70
2023-04-16T14:43:25.068Z,11.60
2023-04-16T14:45:52.871Z,11.70
2023-04-16T14:48:19.863Z,11.90
2023-04-16T14:50:46.826Z,12.00
2023-04-16T14:53:13.965Z,11.90
2023-04-16T14:55:40.862Z,11.90
2023-04-16T14:58:08.017Z,11.90
2023-04-16T15:00:35.825Z,11.90
2023-04-16T15:03:03.016Z,11.70
2023-04-16T15:05:31.586Z,11.70
2023-04-16T15:07:58.498Z,11.70
2023-04-16T15:10:25.324Z,11.70
2023-04-16T15:12:52.126Z,11.70
2023-04-16T15:15:19.025Z,11.70
2023-04-16T15:17:46.108Z,11.70
2023-04-16T15:20:13.582Z,11.70
2023-04-16T15:22:40.764Z,11.70
2023-04-16T15:25:08.222Z,11.60
2023-04-16T15:27:35.317Z,11.70
2023-04-16T15:30:02.243Z,11.70
2023-04-16T15:32:29.345Z,11.80
2023-04-16T15:34:56.287Z,11.70
2023-04-16T15:37:23.643Z,11.80
2023-04-16T15:39:50.552Z,11.70
2023-04-16T15:42:17.423Z,11.70
2023-04-16T15:44:44.447Z,11.80
2023-04-16T15:47:11.471Z,11.90
2023-04-16T15:49:38.476Z,12.00
2023-04-16T15:52:05.735Z,12.10
2023-04-16T15:54:32.647Z,12.10
2023-04-16T15:56:59.472Z,12.10
2023-04-16T15:59:26.953Z,12.20
2023-04-16T16:01:54.016Z,12.00
2023-04-16T16:04:26.377Z,11.90
2023-04-16T16:06:54.120Z,11.90
2023-04-16T16:09:26.235Z,11.80
2023-04-16T16:11:54.445Z,11.80
2023-04-16T16:14:22.361Z,11.90
2023-04-16T16:16:49.732Z,11.80
2023-04-16T16:19:16.907Z,11.90
2023-04-16T16:21:43.847Z,11.80
2023-04-16T16:24:10.710Z,11.90
2023-04-16T16:26:37.797Z,11.80
2023-04-16T16:29:05.311Z,11.90
2023-04-16T16:31:32.134Z,11.90
2023-04-16T16:33:59.009Z,11.90
2023-04-16T16:36:26.652Z,11.90
2023-04-16T16:38:53.582Z,11.90
2023-04-16T16:41:20.707Z,11.90
2023-04-16T16:43:47.691Z,11.90
2023-04-16T16:46:14.787Z,11.70
2023-04-16T16:48:41.626Z,11.80
2023-04-16T16:51:11.764Z,11.70
2023-04-16T16:53:38.696Z,11.80
2023-04-16T16:56:05.925Z,11.70
2023-04-16T16:58:32.818Z,11.60
2023-04-16T17:01:00.107Z,11.70
2023-04-16T17:03:27.078Z,11.60
2023-04-16T17:05:54.236Z,11.60
2023-04-16T17:08:21.329Z,11.70
2023-04-16T17:10:48.314Z,11.60
2023-04-16T17:13:19.732Z,11.70
2023-04-16T17:15:47.006Z,11.60
2023-04-16T17:18:13.924Z,11.50
2023-04-16T17:20:41.021Z,11.70
2023-04-16T17:23:07.854Z,11.60
2023-04-16T17:25:34.923Z,11.50
2023-04-16T17:28:02.458Z,11.50
2023-04-16T17:30:31.611Z,11.50
2023-04-16T17:32:58.526Z,11.50
2023-04-16T17:35:25.492Z,11.40
2023-04-16T17:37:52.407Z,11.50
2023-04-16T17:40:19.277Z,11.50
2023-04-16T17:42:46.237Z,11.50
2023-04-16T17:45:13.488Z,11.60
2023-04-16T17:47:40.696Z,11.50
2023-04-16T17:50:08.692Z,11.50
2023-04-16T17:52:37.422Z,11.60
2023-04-16T17:55:05.893Z,11.60
2023-04-16T17:57:32.719Z,11.50
2023-04-16T17:59:59.814Z,11.50
2023-04-16T18:02:26.799Z,11.60
2023-04-16T18:04:53.920Z,11.60
2023-04-16T18:07:21.057Z,11.60
2023-04-16T18:09:47.879Z,11.60
2023-04-16T18:12:14.792Z,11.50
2023-04-16T18:14:44.734Z,11.50
2023-04-16T18:17:11.819Z,11.50
2023-04-16T18:19:40.535Z,11.50
2023-04-16T18:22:07.348Z,11.40
2023-04-16T18:24:36.399Z,11.40
2023-04-16T18:27:03.902Z,11.50
2023-04-16T18:29:33.735Z,11.40
2023-04-16T18:32:03.936Z,11.50
2023-04-16T18:34:31.979Z,11.40
2023-04-16T18:36:58.822Z,11.40
2023-04-16T18:39:25.638Z,11.40
2023-04-16T18:41:52.421Z,11.30
2023-04-16T18:44:19.927Z,11.40
2023-04-16T18:46:46.878Z,11.40
2023-04-16T18:49:13.843Z,11.30
2023-04-16T18:51:42.052Z,11.20
2023-04-16T18:54:09.269Z,11.20
2023-04-16T18:56:36.194Z,11.40
2023-04-16T18:59:03.150Z,11.30
2023-04-16T19:01:30.024Z,11.20
2023-04-16T19:03:57.153Z,11.30
2023-04-16T19:06:24.011Z,11.20
2023-04-16T19:08:51.010Z,11.20
2023-04-16T19:11:17.988Z,11.10
2023-04-16T19:13:44.928Z,11.10
2023-04-16T19:16:12.358Z,11.30
2023-04-16T19:18:39.487Z,11.20
2023-04-16T19:21:07.281Z,11.20
2023-04-16T19:23:34.227Z,11.20
2023-04-16T19:26:01.616Z,11.20
2023-04-16T19:28:28.782Z,11.10
2023-04-16T19:30:56.031Z,11.00
2023-04-16T19:33:23.014Z,11.00
2023-04-16T19:35:49.787Z,11.00
2023-04-16T19:38:16.706Z,10.90
2023-04-16T19:40:48.262Z,10.90
2023-04-16T19:43:15.434Z,10.90
2023-04-16T19:45:54.931Z,10.90
2023-04-16T19:48:21.845Z,10.80
2023-04-16T19:50:48.892Z,10.80
2023-04-16T19:53:17.265Z,10.80
2023-04-16T19:55:44.288Z,10.80
2023-04-16T19:58:11.231Z,10.80
2023-04-16T20:00:40.830Z,10.90
2023-04-16T20:03:08.062Z,10.90
2023-04-16T20:05:35.189Z,11.00
2023-04-16T20:08:02.178Z,10.80
2023-04-16T20:10:31.308Z,10.70
2023-04-16T20:12:58.636Z,10.80
2023-04-16T20:15:25.878Z,10.70
2023-04-16T20:17:53.424Z,10.60
2023-04-16T20:20:23.688Z,10.60
2023-04-16T20:22:50.881Z,10.70
2023-04-16T20:25:20.719Z,10.70
2023-04-16T20:27:47.735Z,10.70
2023-04-16T20:30:14.957Z,10.70
2023-04-16T20:32:41.935Z,10.70
2023-04-16T20:35:11.421Z,10.60
2023-04-16T20:37:42.102Z,10.50
2023-04-16T20:40:10.858Z,10.40
2023-04-16T20:42:37.850Z,10.30
2023-04-16T20:45:05.226Z,10.40
2023-04-16T20:47:34.763Z,10.40
2023-04-16T20:50:02.698Z,10.40
2023-04-16T20:52:29.556Z,10.40
2023-04-16T20:54:56.409Z,10.40
2023-04-16T20:57:23.253Z,10.40
2023-04-16T20:59:50.051Z,10.30
2023-04-16T21:02:17.056Z,10.30
2023-04-16T21:04:44.160Z,10.20
2023-04-16T21:07:11.488Z,10.20
2023-04-16T21:09:38.269Z,10.10
2023-04-16T21:12:05.521Z,10.00
2023-04-16T21:14:32.381Z,10.00
2023-04-16T21:16:59.197Z,9.80
2023-04-16T21:19:26.189Z,10.00
2023-04-16T21:21:53.062Z,9.90
2023-04-16T21:24:20.070Z,9.90
2023-04-16T21:26:46.921Z,9.80
2023-04-16T21:29:13.840Z,9.90
2023-04-16T21:31:40.847Z,9.90
2023-04-16T21:34:07.774Z,9.90
2023-04-16T21:36:35.091Z,9.90
2023-04-16T21:39:02.172Z,9.90
2023-04-16T21:41:28.983Z,9.90
2023-04-16T21:43:55.778Z,10.00
2023-04-16T21:46:23.078Z,9.90
2023-04-16T21:48:50.026Z,9.80
2023-04-16T21:51:18.192Z,9.80
2023-04-16T21:53:45.058Z,9.80
2023-04-16T21:56:11.886Z,9.90
2023-04-16T21:58:38.691Z,9.90
2023-04-16T22:01:05.795Z,9.80
2023-04-16T22:03:33.593Z,9.90
2023-04-16T22:06:01.474Z,10.00
2023-04-16T22:08:29.488Z,9.80
2023-04-16T22:10:58.388Z,9.90
2023-04-16T22:13:26.288Z,9.90
2023-04-16T22:15:53.564Z,10.00
2023-04-16T22:18:20.856Z,10.00
2023-04-16T22:20:50.781Z,10.00
2023-04-16T22:23:17.616Z,10.10
2023-04-16T22:25:44.536Z,10.20
2023-04-16T22:28:11.549Z,10.20
2023-04-16T22:30:38.363Z,10.10
2023-04-16T22:33:05.490Z,10.10
2023-04-16T22:35:32.768Z,10.00
2023-04-16T22:37:59.559Z,10.00
2023-04-16T22:40:26.386Z,10.00
2023-04-16T22:42:53.155Z,10.00
2023-04-16T22:45:19.963Z,10.00
2023-04-16T22:47:46.796Z,10.00
2023-04-16T22:50:13.683Z,10.00
2023-04-16T22:52:40.666Z,9.90
2023-04-16T22:55:08.288Z,10.00
2023-04-16T22:57:35.158Z,10.20
2023-04-16T23:00:01.941Z,10.20
2023-04-16T23:02:28.891Z,10.10
2023-04-16T23:04:56.276Z,10.20
2023-04-16T23:07:23.019Z,10.20
2023-04-16T23:09:49.853Z,10.10
2023-04-16T23:12:16.676Z,9.90
2023-04-16T23:14:45.977Z,9.90
2023-04-16T23:17:13.849Z,9.90
2023-04-16T23:19:40.722Z,9.90
2023-04-16T23:22:07.636Z,9.80
2023-04-16T23:24:34.422Z,9.70
2023-04-16T23:27:01.456Z,9.70
2023-04-16T23:29:28.441Z,9.60
2023-04-16T23:31:55.315Z,9.70
2023-04-16T23:34:22.238Z,9.60
2023-04-16T23:36:49.050Z,9.60
2023-04-16T23:39:15.961Z,9.50
2023-04-16T23:41:42.783Z,9.60
2023-04-16T23:44:09.602Z,9.50
2023-04-16T23:46:36.611Z,9.50
2023-04-16T23:49:03.723Z,9.60
2023-04-16T23:51:31.563Z,9.60
2023-04-16T23:53:58.427Z,9.70
2023-04-16T23:56:25.427Z,9.70
2023-04-16T23:58:52.220Z,9.70
